sensor_id;sensor_type;location;lat;lon;timestamp;P1;durP1;ratioP1;P2;durP2;ratioP2
73859;SDS011;62197;51.632;13.700;2023-07-13T00:01:15;3.42;;;2.35;;
73859;SDS011;62197;51.632;13.700;2023-07-13T00:03:41;4.22;;;3.42;;
73859;SDS011;62197;51.632;13.700;2023-07-13T00:06:07;5.20;;;3.83;;
73859;SDS011;62197;51.632;13.700;2023-07-13T00:08:33;3.67;;;2.97;;
73859;SDS011;62197;51.632;13.700;2023-07-13T00:11:00;3.50;;;2.55;;
73859;SDS011;62197;51.632;13.700;2023-07-13T00:13:26;3.20;;;2.15;;
73859;SDS011;62197;51.632;13.700;2023-07-13T00:15:51;4.47;;;1.88;;
73859;SDS011;62197;51.632;13.700;2023-07-13T00:18:18;2.83;;;1.90;;
73859;SDS011;62197;51.632;13.700;2023-07-13T00:20:44;4.57;;;1.83;;
73859;SDS011;62197;51.632;13.700;2023-07-13T00:23:10;2.40;;;1.70;;
73859;SDS011;62197;51.632;13.700;2023-07-13T00:25:35;3.75;;;1.40;;
73859;SDS011;62197;51.632;13.700;2023-07-13T00:28:01;2.50;;;1.40;;
73859;SDS011;62197;51.632;13.700;2023-07-13T00:30:27;3.17;;;1.15;;
73859;SDS011;62197;51.632;13.700;2023-07-13T00:32:52;2.97;;;1.40;;
73859;SDS011;62197;51.632;13.700;2023-07-13T00:35:17;1.83;;;1.50;;
73859;SDS011;62197;51.632;13.700;2023-07-13T00:37:43;4.20;;;1.65;;
73859;SDS011;62197;51.632;13.700;2023-07-13T00:40:10;2.40;;;1.60;;
73859;SDS011;62197;51.632;13.700;2023-07-13T00:42:37;2.47;;;1.58;;
73859;SDS011;62197;51.632;13.700;2023-07-13T00:47:37;1.88;;;1.52;;
73859;SDS011;62197;51.632;13.700;2023-07-13T00:50:02;3.75;;;1.52;;
73859;SDS011;62197;51.632;13.700;2023-07-13T00:52:30;1.67;;;1.40;;
73859;SDS011;62197;51.632;13.700;2023-07-13T00:54:56;2.97;;;1.45;;
73859;SDS011;62197;51.632;13.700;2023-07-13T00:57:22;4.00;;;1.63;;
73859;SDS011;62197;51.632;13.700;2023-07-13T00:59:50;5.95;;;1.80;;
73859;SDS011;62197;51.632;13.700;2023-07-13T01:02:19;2.72;;;1.50;;
73859;SDS011;62197;51.632;13.700;2023-07-13T01:04:44;1.55;;;1.25;;
73859;SDS011;62197;51.632;13.700;2023-07-13T01:07:10;2.67;;;1.55;;
73859;SDS011;62197;51.632;13.700;2023-07-13T01:09:37;4.15;;;1.63;;
73859;SDS011;62197;51.632;13.700;2023-07-13T01:12:03;2.30;;;1.23;;
73859;SDS011;62197;51.632;13.700;2023-07-13T01:14:28;2.10;;;1.40;;
73859;SDS011;62197;51.632;13.700;2023-07-13T01:16:54;2.30;;;1.52;;
73859;SDS011;62197;51.632;13.700;2023-07-13T01:22:01;2.30;;;1.55;;
73859;SDS011;62197;51.632;13.700;2023-07-13T01:24:27;3.60;;;1.60;;
73859;SDS011;62197;51.632;13.700;2023-07-13T01:26:53;3.80;;;2.22;;
73859;SDS011;62197;51.632;13.700;2023-07-13T01:29:18;3.30;;;1.63;;
73859;SDS011;62197;51.632;13.700;2023-07-13T01:31:44;2.97;;;1.50;;
73859;SDS011;62197;51.632;13.700;2023-07-13T01:34:09;3.00;;;1.50;;
73859;SDS011;62197;51.632;13.700;2023-07-13T01:36:35;2.03;;;1.80;;
73859;SDS011;62197;51.632;13.700;2023-07-13T01:39:01;2.80;;;1.88;;
73859;SDS011;62197;51.632;13.700;2023-07-13T01:41:26;2.45;;;1.73;;
73859;SDS011;62197;51.632;13.700;2023-07-13T01:43:52;2.90;;;1.60;;
73859;SDS011;62197;51.632;13.700;2023-07-13T01:46:17;4.20;;;1.92;;
73859;SDS011;62197;51.632;13.700;2023-07-13T01:48:43;4.10;;;1.75;;
73859;SDS011;62197;51.632;13.700;2023-07-13T01:51:08;2.28;;;1.60;;
73859;SDS011;62197;51.632;13.700;2023-07-13T01:53:33;2.70;;;1.50;;
73859;SDS011;62197;51.632;13.700;2023-07-13T01:55:58;3.45;;;1.60;;
73859;SDS011;62197;51.632;13.700;2023-07-13T01:58:24;4.07;;;1.58;;
73859;SDS011;62197;51.632;13.700;2023-07-13T02:00:49;3.50;;;1.50;;
73859;SDS011;62197;51.632;13.700;2023-07-13T02:03:16;2.40;;;1.85;;
73859;SDS011;62197;51.632;13.700;2023-07-13T02:05:43;3.05;;;2.00;;
73859;SDS011;62197;51.632;13.700;2023-07-13T02:08:09;2.33;;;1.88;;
73859;SDS011;62197;51.632;13.700;2023-07-13T02:10:34;4.53;;;1.90;;
73859;SDS011;62197;51.632;13.700;2023-07-13T02:12:59;3.42;;;1.80;;
73859;SDS011;62197;51.632;13.700;2023-07-13T02:15:25;2.70;;;1.98;;
73859;SDS011;62197;51.632;13.700;2023-07-13T02:17:50;3.22;;;1.52;;
73859;SDS011;62197;51.632;13.700;2023-07-13T02:20:15;3.38;;;1.98;;
73859;SDS011;62197;51.632;13.700;2023-07-13T02:22:41;4.53;;;1.60;;
73859;SDS011;62197;51.632;13.700;2023-07-13T02:25:06;2.53;;;1.70;;
73859;SDS011;62197;51.632;13.700;2023-07-13T02:27:32;6.20;;;1.80;;
73859;SDS011;62197;51.632;13.700;2023-07-13T02:29:57;3.17;;;1.80;;
73859;SDS011;62197;51.632;13.700;2023-07-13T02:32:22;4.47;;;2.17;;
73859;SDS011;62197;51.632;13.700;2023-07-13T02:34:50;2.63;;;1.60;;
73859;SDS011;62197;51.632;13.700;2023-07-13T02:37:15;2.67;;;1.85;;
73859;SDS011;62197;51.632;13.700;2023-07-13T02:39:40;3.35;;;1.75;;
73859;SDS011;62197;51.632;13.700;2023-07-13T02:42:06;3.35;;;1.85;;
73859;SDS011;62197;51.632;13.700;2023-07-13T02:44:31;2.88;;;2.00;;
73859;SDS011;62197;51.632;13.700;2023-07-13T02:46:57;3.90;;;2.30;;
73859;SDS011;62197;51.632;13.700;2023-07-13T02:49:22;3.47;;;1.95;;
73859;SDS011;62197;51.632;13.700;2023-07-13T02:51:47;2.28;;;2.08;;
73859;SDS011;62197;51.632;13.700;2023-07-13T02:54:13;4.32;;;2.08;;
73859;SDS011;62197;51.632;13.700;2023-07-13T02:56:38;4.15;;;1.92;;
73859;SDS011;62197;51.632;13.700;2023-07-13T02:59:04;3.13;;;2.00;;
73859;SDS011;62197;51.632;13.700;2023-07-13T03:01:29;4.25;;;2.15;;
73859;SDS011;62197;51.632;13.700;2023-07-13T03:03:54;4.53;;;2.67;;
73859;SDS011;62197;51.632;13.700;2023-07-13T03:06:20;5.07;;;2.67;;
73859;SDS011;62197;51.632;13.700;2023-07-13T03:08:46;3.47;;;2.50;;
73859;SDS011;62197;51.632;13.700;2023-07-13T03:11:15;2.78;;;1.98;;
73859;SDS011;62197;51.632;13.700;2023-07-13T03:13:43;3.13;;;2.40;;
73859;SDS011;62197;51.632;13.700;2023-07-13T03:16:09;3.25;;;2.38;;
73859;SDS011;62197;51.632;13.700;2023-07-13T03:18:35;3.60;;;2.28;;
73859;SDS011;62197;51.632;13.700;2023-07-13T03:21:01;3.85;;;2.10;;
73859;SDS011;62197;51.632;13.700;2023-07-13T03:23:26;2.90;;;2.17;;
73859;SDS011;62197;51.632;13.700;2023-07-13T03:26:04;2.70;;;1.95;;
73859;SDS011;62197;51.632;13.700;2023-07-13T03:28:32;7.35;;;2.22;;
73859;SDS011;62197;51.632;13.700;2023-07-13T03:30:59;5.50;;;2.10;;
73859;SDS011;62197;51.632;13.700;2023-07-13T03:33:25;8.27;;;2.40;;
73859;SDS011;62197;51.632;13.700;2023-07-13T03:35:50;4.75;;;2.17;;
73859;SDS011;62197;51.632;13.700;2023-07-13T03:38:15;4.10;;;2.35;;
73859;SDS011;62197;51.632;13.700;2023-07-13T03:40:41;3.90;;;2.10;;
73859;SDS011;62197;51.632;13.700;2023-07-13T03:43:07;2.40;;;1.95;;
73859;SDS011;62197;51.632;13.700;2023-07-13T03:45:32;2.80;;;2.20;;
73859;SDS011;62197;51.632;13.700;2023-07-13T03:47:57;3.25;;;2.47;;
73859;SDS011;62197;51.632;13.700;2023-07-13T03:50:22;3.67;;;2.15;;
73859;SDS011;62197;51.632;13.700;2023-07-13T03:52:48;4.35;;;2.28;;
73859;SDS011;62197;51.632;13.700;2023-07-13T03:55:13;4.43;;;2.08;;
73859;SDS011;62197;51.632;13.700;2023-07-13T03:57:38;3.28;;;2.13;;
73859;SDS011;62197;51.632;13.700;2023-07-13T04:00:04;3.47;;;2.20;;
73859;SDS011;62197;51.632;13.700;2023-07-13T04:02:30;5.63;;;2.40;;
73859;SDS011;62197;51.632;13.700;2023-07-13T04:04:56;2.80;;;2.20;;
73859;SDS011;62197;51.632;13.700;2023-07-13T04:07:21;3.33;;;2.25;;
73859;SDS011;62197;51.632;13.700;2023-07-13T04:09:46;3.85;;;2.13;;
73859;SDS011;62197;51.632;13.700;2023-07-13T04:12:12;4.30;;;2.15;;
73859;SDS011;62197;51.632;13.700;2023-07-13T04:14:37;4.40;;;2.05;;
73859;SDS011;62197;51.632;13.700;2023-07-13T04:17:03;6.18;;;2.25;;
73859;SDS011;62197;51.632;13.700;2023-07-13T04:19:29;3.25;;;2.20;;
73859;SDS011;62197;51.632;13.700;2023-07-13T04:21:54;3.38;;;2.60;;
73859;SDS011;62197;51.632;13.700;2023-07-13T04:24:19;4.57;;;2.35;;
73859;SDS011;62197;51.632;13.700;2023-07-13T04:26:45;6.07;;;2.70;;
73859;SDS011;62197;51.632;13.700;2023-07-13T04:29:10;4.90;;;3.05;;
73859;SDS011;62197;51.632;13.700;2023-07-13T04:31:35;4.90;;;2.60;;
73859;SDS011;62197;51.632;13.700;2023-07-13T04:34:01;4.75;;;3.00;;
73859;SDS011;62197;51.632;13.700;2023-07-13T04:36:27;4.53;;;3.08;;
73859;SDS011;62197;51.632;13.700;2023-07-13T04:38:53;4.88;;;2.60;;
73859;SDS011;62197;51.632;13.700;2023-07-13T04:41:21;5.70;;;2.50;;
73859;SDS011;62197;51.632;13.700;2023-07-13T04:43:46;3.90;;;2.47;;
73859;SDS011;62197;51.632;13.700;2023-07-13T04:46:13;5.57;;;2.78;;
73859;SDS011;62197;51.632;13.700;2023-07-13T04:48:42;4.38;;;2.63;;
73859;SDS011;62197;51.632;13.700;2023-07-13T04:51:07;4.97;;;2.38;;
73859;SDS011;62197;51.632;13.700;2023-07-13T04:53:33;3.58;;;2.75;;
73859;SDS011;62197;51.632;13.700;2023-07-13T04:55:59;5.13;;;3.08;;
73859;SDS011;62197;51.632;13.700;2023-07-13T04:58:25;4.80;;;3.05;;
73859;SDS011;62197;51.632;13.700;2023-07-13T05:00:51;4.05;;;2.80;;
73859;SDS011;62197;51.632;13.700;2023-07-13T05:03:16;8.07;;;3.08;;
73859;SDS011;62197;51.632;13.700;2023-07-13T05:05:42;5.20;;;2.42;;
73859;SDS011;62197;51.632;13.700;2023-07-13T05:08:07;3.75;;;2.63;;
73859;SDS011;62197;51.632;13.700;2023-07-13T05:10:33;3.75;;;2.95;;
73859;SDS011;62197;51.632;13.700;2023-07-13T05:12:58;5.32;;;2.97;;
73859;SDS011;62197;51.632;13.700;2023-07-13T05:15:24;3.88;;;2.47;;
73859;SDS011;62197;51.632;13.700;2023-07-13T05:17:50;10.48;;;2.80;;
73859;SDS011;62197;51.632;13.700;2023-07-13T05:20:15;7.80;;;3.30;;
73859;SDS011;62197;51.632;13.700;2023-07-13T05:22:42;5.25;;;3.00;;
73859;SDS011;62197;51.632;13.700;2023-07-13T05:25:08;4.25;;;2.67;;
73859;SDS011;62197;51.632;13.700;2023-07-13T05:27:34;3.30;;;2.60;;
73859;SDS011;62197;51.632;13.700;2023-07-13T05:30:00;5.90;;;2.63;;
73859;SDS011;62197;51.632;13.700;2023-07-13T05:32:27;4.40;;;2.88;;
73859;SDS011;62197;51.632;13.700;2023-07-13T05:34:52;4.18;;;2.90;;
73859;SDS011;62197;51.632;13.700;2023-07-13T05:37:17;5.35;;;2.83;;
73859;SDS011;62197;51.632;13.700;2023-07-13T05:39:43;4.68;;;2.88;;
73859;SDS011;62197;51.632;13.700;2023-07-13T05:42:08;5.55;;;3.00;;
73859;SDS011;62197;51.632;13.700;2023-07-13T05:44:33;5.10;;;2.70;;
73859;SDS011;62197;51.632;13.700;2023-07-13T05:46:59;5.22;;;2.80;;
73859;SDS011;62197;51.632;13.700;2023-07-13T05:49:24;9.25;;;3.08;;
73859;SDS011;62197;51.632;13.700;2023-07-13T05:51:49;9.32;;;2.53;;
73859;SDS011;62197;51.632;13.700;2023-07-13T05:54:15;5.78;;;2.60;;
73859;SDS011;62197;51.632;13.700;2023-07-13T05:56:40;5.97;;;2.75;;
73859;SDS011;62197;51.632;13.700;2023-07-13T05:59:06;7.15;;;3.00;;
73859;SDS011;62197;51.632;13.700;2023-07-13T06:01:31;5.30;;;2.50;;
73859;SDS011;62197;51.632;13.700;2023-07-13T06:03:56;5.18;;;2.47;;
73859;SDS011;62197;51.632;13.700;2023-07-13T06:06:22;10.68;;;2.75;;
73859;SDS011;62197;51.632;13.700;2023-07-13T06:08:47;3.58;;;2.03;;
73859;SDS011;62197;51.632;13.700;2023-07-13T06:11:14;3.45;;;2.20;;
73859;SDS011;62197;51.632;13.700;2023-07-13T06:13:42;5.05;;;2.17;;
73859;SDS011;62197;51.632;13.700;2023-07-13T06:16:08;3.97;;;1.90;;
73859;SDS011;62197;51.632;13.700;2023-07-13T06:18:35;4.18;;;2.17;;
73859;SDS011;62197;51.632;13.700;2023-07-13T06:21:11;3.55;;;1.98;;
73859;SDS011;62197;51.632;13.700;2023-07-13T06:23:39;2.45;;;1.70;;
73859;SDS011;62197;51.632;13.700;2023-07-13T06:26:05;4.03;;;1.90;;
73859;SDS011;62197;51.632;13.700;2023-07-13T06:28:31;2.42;;;1.70;;
73859;SDS011;62197;51.632;13.700;2023-07-13T06:30:57;4.15;;;1.60;;
73859;SDS011;62197;51.632;13.700;2023-07-13T06:33:23;3.38;;;1.73;;
73859;SDS011;62197;51.632;13.700;2023-07-13T06:35:50;3.03;;;1.40;;
73859;SDS011;62197;51.632;13.700;2023-07-13T06:38:15;4.45;;;1.73;;
73859;SDS011;62197;51.632;13.700;2023-07-13T06:40:40;7.90;;;2.03;;
73859;SDS011;62197;51.632;13.700;2023-07-13T06:43:06;3.85;;;1.65;;
73859;SDS011;62197;51.632;13.700;2023-07-13T06:45:32;3.67;;;1.30;;
73859;SDS011;62197;51.632;13.700;2023-07-13T06:48:05;3.60;;;1.17;;
73859;SDS011;62197;51.632;13.700;2023-07-13T06:50:30;1.75;;;1.17;;
73859;SDS011;62197;51.632;13.700;2023-07-13T06:52:56;2.03;;;1.10;;
73859;SDS011;62197;51.632;13.700;2023-07-13T06:55:21;4.55;;;1.42;;
73859;SDS011;62197;51.632;13.700;2023-07-13T06:57:46;4.00;;;1.10;;
73859;SDS011;62197;51.632;13.700;2023-07-13T07:00:12;3.80;;;1.30;;
73859;SDS011;62197;51.632;13.700;2023-07-13T07:02:38;3.67;;;1.20;;
73859;SDS011;62197;51.632;13.700;2023-07-13T07:05:03;2.85;;;0.90;;
73859;SDS011;62197;51.632;13.700;2023-07-13T07:07:29;2.70;;;1.20;;
73859;SDS011;62197;51.632;13.700;2023-07-13T07:09:54;4.53;;;1.75;;
73859;SDS011;62197;51.632;13.700;2023-07-13T07:12:20;1.73;;;1.20;;
73859;SDS011;62197;51.632;13.700;2023-07-13T07:14:45;2.25;;;1.30;;
73859;SDS011;62197;51.632;13.700;2023-07-13T07:17:10;4.43;;;1.30;;
73859;SDS011;62197;51.632;13.700;2023-07-13T07:19:36;4.50;;;1.40;;
73859;SDS011;62197;51.632;13.700;2023-07-13T07:22:01;3.45;;;1.25;;
73859;SDS011;62197;51.632;13.700;2023-07-13T07:24:26;4.30;;;1.50;;
73859;SDS011;62197;51.632;13.700;2023-07-13T07:26:52;4.35;;;1.58;;
73859;SDS011;62197;51.632;13.700;2023-07-13T07:29:17;3.20;;;1.05;;
73859;SDS011;62197;51.632;13.700;2023-07-13T07:31:42;2.65;;;1.50;;
73859;SDS011;62197;51.632;13.700;2023-07-13T07:34:08;4.40;;;1.48;;
73859;SDS011;62197;51.632;13.700;2023-07-13T07:36:33;5.50;;;1.58;;
73859;SDS011;62197;51.632;13.700;2023-07-13T07:38:59;4.45;;;1.45;;
73859;SDS011;62197;51.632;13.700;2023-07-13T07:41:24;7.38;;;1.30;;
73859;SDS011;62197;51.632;13.700;2023-07-13T07:43:49;2.85;;;1.33;;
73859;SDS011;62197;51.632;13.700;2023-07-13T07:46:15;2.85;;;1.23;;
73859;SDS011;62197;51.632;13.700;2023-07-13T07:48:40;1.92;;;1.00;;
73859;SDS011;62197;51.632;13.700;2023-07-13T07:51:05;3.78;;;1.55;;
73859;SDS011;62197;51.632;13.700;2023-07-13T07:53:31;4.05;;;1.27;;
73859;SDS011;62197;51.632;13.700;2023-07-13T07:55:56;4.38;;;1.33;;
73859;SDS011;62197;51.632;13.700;2023-07-13T07:58:21;2.85;;;1.20;;
73859;SDS011;62197;51.632;13.700;2023-07-13T08:00:47;2.17;;;0.88;;
73859;SDS011;62197;51.632;13.700;2023-07-13T08:03:12;3.17;;;1.58;;
73859;SDS011;62197;51.632;13.700;2023-07-13T08:05:37;5.03;;;1.70;;
73859;SDS011;62197;51.632;13.700;2023-07-13T08:08:03;1.98;;;1.02;;
73859;SDS011;62197;51.632;13.700;2023-07-13T08:10:29;3.10;;;1.00;;
73859;SDS011;62197;51.632;13.700;2023-07-13T08:12:54;3.95;;;1.70;;
73859;SDS011;62197;51.632;13.700;2023-07-13T08:15:19;5.30;;;1.45;;
73859;SDS011;62197;51.632;13.700;2023-07-13T08:17:46;3.00;;;1.40;;
73859;SDS011;62197;51.632;13.700;2023-07-13T08:20:14;3.33;;;1.20;;
73859;SDS011;62197;51.632;13.700;2023-07-13T08:22:39;5.30;;;1.40;;
73859;SDS011;62197;51.632;13.700;2023-07-13T08:25:05;3.08;;;1.10;;
73859;SDS011;62197;51.632;13.700;2023-07-13T08:27:30;2.85;;;1.40;;
73859;SDS011;62197;51.632;13.700;2023-07-13T08:29:56;3.13;;;1.10;;
73859;SDS011;62197;51.632;13.700;2023-07-13T08:32:21;5.10;;;1.30;;
73859;SDS011;62197;51.632;13.700;2023-07-13T08:34:48;3.65;;;1.40;;
73859;SDS011;62197;51.632;13.700;2023-07-13T08:37:14;3.72;;;1.30;;
73859;SDS011;62197;51.632;13.700;2023-07-13T08:39:39;2.88;;;1.30;;
73859;SDS011;62197;51.632;13.700;2023-07-13T08:42:06;2.03;;;1.05;;
73859;SDS011;62197;51.632;13.700;2023-07-13T08:47:58;3.45;;;1.40;;
73859;SDS011;62197;51.632;13.700;2023-07-13T08:50:43;2.45;;;1.10;;
73859;SDS011;62197;51.632;13.700;2023-07-13T08:53:21;3.97;;;1.90;;
73859;SDS011;62197;51.632;13.700;2023-07-13T08:55:48;6.63;;;1.63;;
73859;SDS011;62197;51.632;13.700;2023-07-13T08:58:21;2.92;;;1.30;;
73859;SDS011;62197;51.632;13.700;2023-07-13T09:00:56;4.25;;;1.40;;
73859;SDS011;62197;51.632;13.700;2023-07-13T09:03:30;3.35;;;1.42;;
73859;SDS011;62197;51.632;13.700;2023-07-13T09:06:01;2.53;;;1.30;;
73859;SDS011;62197;51.632;13.700;2023-07-13T09:08:44;3.40;;;1.13;;
73859;SDS011;62197;51.632;13.700;2023-07-13T09:14:01;3.58;;;1.58;;
73859;SDS011;62197;51.632;13.700;2023-07-13T09:16:29;2.08;;;1.00;;
73859;SDS011;62197;51.632;13.700;2023-07-13T09:18:56;3.92;;;1.40;;
73859;SDS011;62197;51.632;13.700;2023-07-13T09:21:37;4.03;;;1.30;;
73859;SDS011;62197;51.632;13.700;2023-07-13T09:24:22;4.35;;;1.20;;
73859;SDS011;62197;51.632;13.700;2023-07-13T09:26:55;3.70;;;1.40;;
73859;SDS011;62197;51.632;13.700;2023-07-13T09:29:29;2.80;;;1.20;;
73859;SDS011;62197;51.632;13.700;2023-07-13T09:32:01;3.42;;;1.30;;
73859;SDS011;62197;51.632;13.700;2023-07-13T09:34:29;5.53;;;1.27;;
73859;SDS011;62197;51.632;13.700;2023-07-13T09:36:55;2.90;;;1.45;;
73859;SDS011;62197;51.632;13.700;2023-07-13T09:42:03;2.58;;;1.27;;
73859;SDS011;62197;51.632;13.700;2023-07-13T09:44:37;3.08;;;1.20;;
73859;SDS011;62197;51.632;13.700;2023-07-13T09:47:15;5.18;;;1.00;;
73859;SDS011;62197;51.632;13.700;2023-07-13T09:49:42;3.08;;;1.45;;
73859;SDS011;62197;51.632;13.700;2023-07-13T09:52:10;4.15;;;1.77;;
73859;SDS011;62197;51.632;13.700;2023-07-13T09:54:39;2.78;;;1.30;;
73859;SDS011;62197;51.632;13.700;2023-07-13T09:57:15;4.22;;;1.30;;
73859;SDS011;62197;51.632;13.700;2023-07-13T09:59:48;7.10;;;1.85;;
73859;SDS011;62197;51.632;13.700;2023-07-13T10:02:49;2.92;;;1.30;;
73859;SDS011;62197;51.632;13.700;2023-07-13T10:05:11;5.55;;;1.23;;
73859;SDS011;62197;51.632;13.700;2023-07-13T10:07:39;3.05;;;1.15;;
73859;SDS011;62197;51.632;13.700;2023-07-13T10:10:16;4.20;;;1.40;;
73859;SDS011;62197;51.632;13.700;2023-07-13T10:12:47;3.20;;;0.90;;
73859;SDS011;62197;51.632;13.700;2023-07-13T10:15:15;4.53;;;1.10;;
73859;SDS011;62197;51.632;13.700;2023-07-13T10:17:43;5.22;;;1.65;;
73859;SDS011;62197;51.632;13.700;2023-07-13T10:20:09;2.70;;;1.20;;
73859;SDS011;62197;51.632;13.700;2023-07-13T10:22:49;3.15;;;1.00;;
73859;SDS011;62197;51.632;13.700;2023-07-13T10:25:20;1.92;;;0.77;;
73859;SDS011;62197;51.632;13.700;2023-07-13T10:27:47;1.77;;;0.82;;
73859;SDS011;62197;51.632;13.700;2023-07-13T10:30:21;3.17;;;1.05;;
73859;SDS011;62197;51.632;13.700;2023-07-13T10:32:53;2.63;;;1.00;;
73859;SDS011;62197;51.632;13.700;2023-07-13T10:35:19;2.85;;;0.88;;
73859;SDS011;62197;51.632;13.700;2023-07-13T10:38:01;3.13;;;0.68;;
73859;SDS011;62197;51.632;13.700;2023-07-13T10:40:36;4.53;;;0.93;;
73859;SDS011;62197;51.632;13.700;2023-07-13T10:43:04;4.05;;;1.13;;
73859;SDS011;62197;51.632;13.700;2023-07-13T10:45:35;2.38;;;1.00;;
73859;SDS011;62197;51.632;13.700;2023-07-13T10:48:02;3.00;;;0.75;;
73859;SDS011;62197;51.632;13.700;2023-07-13T10:50:29;2.40;;;0.70;;
73859;SDS011;62197;51.632;13.700;2023-07-13T10:53:01;3.72;;;1.13;;
73859;SDS011;62197;51.632;13.700;2023-07-13T10:55:36;3.53;;;0.80;;
73859;SDS011;62197;51.632;13.700;2023-07-13T11:00:57;2.20;;;1.00;;
73859;SDS011;62197;51.632;13.700;2023-07-13T11:03:24;2.42;;;0.90;;
73859;SDS011;62197;51.632;13.700;2023-07-13T11:06:03;2.60;;;0.80;;
73859;SDS011;62197;51.632;13.700;2023-07-13T11:11:45;1.88;;;0.90;;
73859;SDS011;62197;51.632;13.700;2023-07-13T11:15:00;6.57;;;1.00;;
73859;SDS011;62197;51.632;13.700;2023-07-13T11:16:54;2.67;;;1.15;;
73859;SDS011;62197;51.632;13.700;2023-07-13T11:22:01;2.72;;;1.05;;
73859;SDS011;62197;51.632;13.700;2023-07-13T11:27:32;2.95;;;1.05;;
73859;SDS011;62197;51.632;13.700;2023-07-13T11:30:23;1.90;;;0.90;;
73859;SDS011;62197;51.632;13.700;2023-07-13T11:37:59;3.35;;;1.13;;
73859;SDS011;62197;51.632;13.700;2023-07-13T11:40:25;4.00;;;1.15;;
73859;SDS011;62197;51.632;13.700;2023-07-13T11:42:58;2.72;;;0.93;;
73859;SDS011;62197;51.632;13.700;2023-07-13T11:45:24;3.63;;;0.80;;
73859;SDS011;62197;51.632;13.700;2023-07-13T11:47:49;2.35;;;0.85;;
73859;SDS011;62197;51.632;13.700;2023-07-13T11:50:22;3.03;;;0.85;;
73859;SDS011;62197;51.632;13.700;2023-07-13T11:52:49;2.55;;;1.15;;
73859;SDS011;62197;51.632;13.700;2023-07-13T11:55:19;2.38;;;1.00;;
73859;SDS011;62197;51.632;13.700;2023-07-13T11:57:57;3.10;;;1.05;;
73859;SDS011;62197;51.632;13.700;2023-07-13T12:00:29;2.22;;;0.90;;
73859;SDS011;62197;51.632;13.700;2023-07-13T12:02:59;2.58;;;1.10;;
73859;SDS011;62197;51.632;13.700;2023-07-13T12:05:26;4.95;;;1.10;;
73859;SDS011;62197;51.632;13.700;2023-07-13T12:07:51;6.85;;;1.20;;
73859;SDS011;62197;51.632;13.700;2023-07-13T12:12:58;3.38;;;0.90;;
73859;SDS011;62197;51.632;13.700;2023-07-13T12:15:42;2.17;;;1.02;;
73859;SDS011;62197;51.632;13.700;2023-07-13T12:18:13;6.55;;;1.10;;
73859;SDS011;62197;51.632;13.700;2023-07-13T12:20:46;2.72;;;1.40;;
73859;SDS011;62197;51.632;13.700;2023-07-13T12:23:19;4.60;;;1.00;;
73859;SDS011;62197;51.632;13.700;2023-07-13T12:25:49;1.90;;;1.05;;
73859;SDS011;62197;51.632;13.700;2023-07-13T12:28:22;3.97;;;0.90;;
73859;SDS011;62197;51.632;13.700;2023-07-13T12:30:58;3.60;;;1.17;;
73859;SDS011;62197;51.632;13.700;2023-07-13T12:33:27;4.00;;;0.88;;
73859;SDS011;62197;51.632;13.700;2023-07-13T12:35:53;3.35;;;0.90;;
73859;SDS011;62197;51.632;13.700;2023-07-13T12:38:21;4.47;;;1.40;;
73859;SDS011;62197;51.632;13.700;2023-07-13T12:40:50;4.45;;;0.90;;
73859;SDS011;62197;51.632;13.700;2023-07-13T12:43:17;3.17;;;1.00;;
73859;SDS011;62197;51.632;13.700;2023-07-13T12:45:58;4.25;;;0.70;;
73859;SDS011;62197;51.632;13.700;2023-07-13T12:48:26;2.15;;;0.60;;
73859;SDS011;62197;51.632;13.700;2023-07-13T12:50:51;2.58;;;0.90;;
73859;SDS011;62197;51.632;13.700;2023-07-13T12:53:19;1.88;;;0.95;;
73859;SDS011;62197;51.632;13.700;2023-07-13T12:55:50;5.28;;;0.80;;
73859;SDS011;62197;51.632;13.700;2023-07-13T13:01:07;5.65;;;0.90;;
73859;SDS011;62197;51.632;13.700;2023-07-13T13:06:04;2.92;;;1.05;;
73859;SDS011;62197;51.632;13.700;2023-07-13T13:08:33;3.17;;;1.08;;
73859;SDS011;62197;51.632;13.700;2023-07-13T13:11:00;2.58;;;1.15;;
73859;SDS011;62197;51.632;13.700;2023-07-13T13:13:26;3.15;;;0.70;;
73859;SDS011;62197;51.632;13.700;2023-07-13T13:15:51;1.45;;;0.63;;
73859;SDS011;62197;51.632;13.700;2023-07-13T13:18:21;2.22;;;0.80;;
73859;SDS011;62197;51.632;13.700;2023-07-13T13:20:49;4.32;;;0.90;;
73859;SDS011;62197;51.632;13.700;2023-07-13T13:23:16;1.38;;;0.63;;
73859;SDS011;62197;51.632;13.700;2023-07-13T13:25:44;0.68;;;0.50;;
73859;SDS011;62197;51.632;13.700;2023-07-13T13:28:14;2.53;;;0.77;;
73859;SDS011;62197;51.632;13.700;2023-07-13T13:30:41;4.10;;;1.08;;
73859;SDS011;62197;51.632;13.700;2023-07-13T13:33:11;3.33;;;1.00;;
73859;SDS011;62197;51.632;13.700;2023-07-13T13:35:38;3.92;;;1.15;;
73859;SDS011;62197;51.632;13.700;2023-07-13T13:38:09;2.55;;;0.80;;
73859;SDS011;62197;51.632;13.700;2023-07-13T13:40:37;2.83;;;0.73;;
73859;SDS011;62197;51.632;13.700;2023-07-13T13:43:02;2.03;;;0.77;;
73859;SDS011;62197;51.632;13.700;2023-07-13T13:45:27;1.60;;;0.70;;
73859;SDS011;62197;51.632;13.700;2023-07-13T13:47:52;2.65;;;0.52;;
73859;SDS011;62197;51.632;13.700;2023-07-13T13:50:21;4.22;;;0.75;;
73859;SDS011;62197;51.632;13.700;2023-07-13T13:52:50;1.63;;;0.55;;
73859;SDS011;62197;51.632;13.700;2023-07-13T13:55:17;2.15;;;0.52;;
73859;SDS011;62197;51.632;13.700;2023-07-13T13:57:47;3.45;;;0.85;;
73859;SDS011;62197;51.632;13.700;2023-07-13T14:00:13;2.45;;;0.80;;
73859;SDS011;62197;51.632;13.700;2023-07-13T14:02:40;2.80;;;0.88;;
73859;SDS011;62197;51.632;13.700;2023-07-13T14:05:12;4.72;;;1.13;;
73859;SDS011;62197;51.632;13.700;2023-07-13T14:07:39;2.83;;;0.82;;
73859;SDS011;62197;51.632;13.700;2023-07-13T14:10:09;2.53;;;1.02;;
73859;SDS011;62197;51.632;13.700;2023-07-13T14:12:37;3.45;;;1.20;;
73859;SDS011;62197;51.632;13.700;2023-07-13T14:15:03;2.63;;;0.80;;
73859;SDS011;62197;51.632;13.700;2023-07-13T14:17:28;2.45;;;0.77;;
73859;SDS011;62197;51.632;13.700;2023-07-13T14:19:54;2.08;;;0.80;;
73859;SDS011;62197;51.632;13.700;2023-07-13T14:22:25;4.35;;;0.93;;
73859;SDS011;62197;51.632;13.700;2023-07-13T14:24:52;2.50;;;0.63;;
73859;SDS011;62197;51.632;13.700;2023-07-13T14:27:19;3.15;;;0.90;;
73859;SDS011;62197;51.632;13.700;2023-07-13T14:29:44;1.40;;;0.70;;
73859;SDS011;62197;51.632;13.700;2023-07-13T14:32:10;1.83;;;0.60;;
73859;SDS011;62197;51.632;13.700;2023-07-13T14:34:36;1.95;;;0.55;;
73859;SDS011;62197;51.632;13.700;2023-07-13T14:37:02;2.05;;;0.80;;
73859;SDS011;62197;51.632;13.700;2023-07-13T14:39:29;2.85;;;0.63;;
73859;SDS011;62197;51.632;13.700;2023-07-13T14:41:55;1.00;;;0.50;;
73859;SDS011;62197;51.632;13.700;2023-07-13T14:44:28;1.63;;;0.52;;
73859;SDS011;62197;51.632;13.700;2023-07-13T14:46:56;4.78;;;0.98;;
73859;SDS011;62197;51.632;13.700;2023-07-13T14:49:24;2.67;;;0.80;;
73859;SDS011;62197;51.632;13.700;2023-07-13T14:51:54;2.13;;;0.60;;
73859;SDS011;62197;51.632;13.700;2023-07-13T14:54:24;1.88;;;1.00;;
73859;SDS011;62197;51.632;13.700;2023-07-13T14:56:50;2.60;;;1.13;;
73859;SDS011;62197;51.632;13.700;2023-07-13T14:59:15;1.35;;;0.50;;
73859;SDS011;62197;51.632;13.700;2023-07-13T15:01:41;1.08;;;0.47;;
73859;SDS011;62197;51.632;13.700;2023-07-13T15:04:06;4.00;;;0.70;;
73859;SDS011;62197;51.632;13.700;2023-07-13T15:06:39;1.42;;;0.60;;
73859;SDS011;62197;51.632;13.700;2023-07-13T15:09:21;1.88;;;0.60;;
73859;SDS011;62197;51.632;13.700;2023-07-13T15:11:46;3.38;;;0.60;;
73859;SDS011;62197;51.632;13.700;2023-07-13T15:14:12;1.67;;;0.65;;